The request has been executed successfully.

The input positions has been matched with the following result:

Complete Path
Country code Length Speed Limit Forward Routing Segment Index Tile Id
52 239 30 37 1110201442
52 12 30 36 1110201442
52 13 0 34 1110201442
52 9 0 31 1110201442
52 18 0 32 1110201442
52 13 0 33 1110201442
52 80 0 38 1110201442
52 10 0 33 1110201441
52 58 0 37 1110201441
52 15 0 39 1110201441
52 44 0 40 1110201441
52 72 0 44 1110201441
52 52 0 48 1110201441
52 67 0 51 1110201441
52 35 0 53 1110201441
52 91 0 54 1110201441
52 64 0 63 1110201441
52 102 0 68 1110201441
52 36 0 75 1110201441
52 40 0 43 1110266977
52 39 0 55 1110266977
52 119 0 73 1110266977
52 107 0 75 1110266977

Matched Locations
Input Id Latitude Longitude Heading Stable Path
1 49.626036429286216 6.114751597918702 251.56505 true Length= 239 SpeedLimitForward = 30 TileId=1110201442 RtgSegIdx=37
10 49.62590877313846 6.114160391597723 251.56505 true Length= 239 SpeedLimitForward = 30 TileId=1110201442 RtgSegIdx=37
20 49.62570130269805 6.113761841781496 165.96376 true Length= 239 SpeedLimitForward = 30 TileId=1110201442 RtgSegIdx=37
Length= 12 SpeedLimitForward = 30 TileId=1110201442 RtgSegIdx=36
Length= 13 SpeedLimitForward = 0 TileId=1110201442 RtgSegIdx=34
Length= 9 SpeedLimitForward = 0 TileId=1110201442 RtgSegIdx=31
Length= 18 SpeedLimitForward = 0 TileId=1110201442 RtgSegIdx=32
Length= 13 SpeedLimitForward = 0 TileId=1110201442 RtgSegIdx=33
30 49.625304465978985 6.114034449727031 152.44719 true Length= 13 SpeedLimitForward = 0 TileId=1110201442 RtgSegIdx=33
Length= 80 SpeedLimitForward = 0 TileId=1110201442 RtgSegIdx=38
40 49.62486073985232 6.1143673874261815 150.64224 true Length= 80 SpeedLimitForward = 0 TileId=1110201442 RtgSegIdx=38
Length= 10 SpeedLimitForward = 0 TileId=1110201441 RtgSegIdx=33
Length= 58 SpeedLimitForward = 0 TileId=1110201441 RtgSegIdx=37
50 49.624505047949924 6.114676247014029 150.64224 true Length= 58 SpeedLimitForward = 0 TileId=1110201441 RtgSegIdx=37
60 49.6241235050943 6.115045678901683 149.74356 true Length= 58 SpeedLimitForward = 0 TileId=1110201441 RtgSegIdx=37
Length= 15 SpeedLimitForward = 0 TileId=1110201441 RtgSegIdx=39
Length= 44 SpeedLimitForward = 0 TileId=1110201441 RtgSegIdx=40
80 49.62340372989817 6.1157082384965555 149.03624 true Length= 44 SpeedLimitForward = 0 TileId=1110201441 RtgSegIdx=40
Length= 72 SpeedLimitForward = 0 TileId=1110201441 RtgSegIdx=44
110 49.622632168764966 6.116621564964823 142.59465 true Length= 72 SpeedLimitForward = 0 TileId=1110201441 RtgSegIdx=44
Length= 52 SpeedLimitForward = 0 TileId=1110201441 RtgSegIdx=48
Length= 67 SpeedLimitForward = 0 TileId=1110201441 RtgSegIdx=51
120 49.621886457669035 6.117370578923927 146.30994 true Length= 67 SpeedLimitForward = 0 TileId=1110201441 RtgSegIdx=51
Length= 35 SpeedLimitForward = 0 TileId=1110201441 RtgSegIdx=53
Length= 91 SpeedLimitForward = 0 TileId=1110201441 RtgSegIdx=54
140 49.6211340699019 6.11817367433563 143.84181 true Length= 91 SpeedLimitForward = 0 TileId=1110201441 RtgSegIdx=54
Length= 64 SpeedLimitForward = 0 TileId=1110201441 RtgSegIdx=63
Length= 102 SpeedLimitForward = 0 TileId=1110201441 RtgSegIdx=68
160 49.62040551464875 6.118995486281988 127.874985 true Length= 102 SpeedLimitForward = 0 TileId=1110201441 RtgSegIdx=68
Length= 36 SpeedLimitForward = 0 TileId=1110201441 RtgSegIdx=75
190 49.61967883124848 6.120319256388504 126.57303 true Length= 36 SpeedLimitForward = 0 TileId=1110201441 RtgSegIdx=75
Length= 40 SpeedLimitForward = 0 TileId=1110266977 RtgSegIdx=43
Length= 39 SpeedLimitForward = 0 TileId=1110266977 RtgSegIdx=55
Length= 119 SpeedLimitForward = 0 TileId=1110266977 RtgSegIdx=73
210 49.61904596983925 6.121722417135681 110.556046 true Length= 119 SpeedLimitForward = 0 TileId=1110266977 RtgSegIdx=73
Length= 107 SpeedLimitForward = 0 TileId=1110266977 RtgSegIdx=75